Terminal Aerodrome Forecast
Issued by NWS

Home | Current Version | Previous Version | Text Only | Print | Product List | Glossary On
Versions: 1 2 3 4 5 6 7 8 9 10 11 12 13 14 15 16 17 18 19 20
000
FTUS42 KMLB 281210 AAA
TAFSFB
TAF AMD
KSFB 281210Z 2812/0112 15005KT 3SM BR SCT004
      TEMPO 2812/2813 1/2SM FG VV004
     FM281500 14009KT P6SM SCT040 BKN070
     FM010000 13006KT P6SM SCT035
     FM010800 16003KT 2SM BR BKN004
      TEMPO 0109/0112 1/2SM FG OVC003=

USA.gov is the U.S. government's official web portal to all federal, state and local government web resources and services.